Language selection

Features

My Weather Profile Weather Topics  | 

York - eastern half: Past 24 Hour Conditions

 

Peawanuck Airport

08:00 PM CST 20 January 2020
Disclaimer

This table is a summary of hourly weather conditions for the past 24 hours.
Please note that these observations might not always be representative of weather conditions over their associated marine area.

Date / Time
(CST)
Wind(knots) Conditions Visibility(km) Pressure(kPa) Air tempC) Relative humidity(%) Dew pointC) Wind Chill
20 January 2020
20:00 SW 11 gust 17 Light Snow 2 101.2 -11 86 -13 -19
19:00 SW 12 gust 19 Light Snow 2 101.3 -11 85 -13 -20
18:00 SW 13 gust 18 Light Snow 6 101.4 -12 78 -15 -21
17:00 SW 13 gust 18 Cloudy 16 101.5 -13 67 -18 -23
16:00 SSW 10 Clear 16 101.6 -15 66 -20 -24
15:00 SW 12 Sunny 16 101.8 -14 62 -20 -23
14:00 WSW 9 Sunny 16 101.9 -14 63 -20 -22
13:00 WSW 8 Sunny 16 102.0 -15 69 -20 -23
12:00 W 10 gust 19 Light Snow 16 102.1 -16 68 -21 -25
11:00 W 10 gust 18 Sunny 16 102.1 -17 67 -22 -26
10:00 W 12 gust 19 Sunny 16 102.2 -18 69 -22 -28
9:00 W 11 gust 17 Sunny 16 102.2 -19 71 -23 -29
8:00 W 9 Sunny 16 102.2 -19 72 -23 -28
7:00 W 8 Clear 16 102.1 -18 74 -22 -27
6:00 W 12 gust 17 Mostly Cloudy 16 102.1 -17 72 -21 -28
5:00 WNW 10 gust 21 Cloudy 16 102.1 -17 72 -21 -26
4:00 WNW 11 gust 18 Cloudy 16 102.0 -16 71 -20 -26
3:00 WNW 11 gust 17 Mostly Cloudy 16 102.0 -17 72 -21 -27
2:00 W 8 gust 17 Partly Cloudy 16 102.0 -18 75 -22 -27
1:00 W 9 gust 17 Mostly Cloudy 16 102.0 -19 75 -22 -28
0:00 W 10 gust 15 Clear 16 102.0 -19 75 -23 -29
19 January 2020
23:00 W 10 gust 15 Clear 16 102.0 -19 75 -23 -29
22:00 WNW 10 gust 15 Mainly Clear 16 102.0 -19 75 -22 -29
21:00 WNW 13 gust 19 Clear 16 102.0 -19 74 -22 -30
20:00 WNW 12 gust 17 Clear 16 102.0 -19 74 -22 -29

Zoom-in to make a selection

Map of Hudson - Hudson Bay marine weather areas Arviat Airport Baker Lake Airport Chesterfield Inlet Airport Coral Harbour Airport Rankin Inlet Airport Sanikiluaq Airport Whale Cove Airport Cape Dorset Airport Iqaluit Airport Wager Bay Kimmirut Airport Churchill Airport Fort Severn Airport Peawanuck Airport Moosonee Airport Eastmain Airport La Grande Rivière Airport Waskaganish Airport Wemindji Airport Akulivik Airport Inukjuak Airport Ivujivik Airport Kuujjuarapik Airport Puvirnituq Airport Umiujaq Airport Aupaluk Airport Kangiqsujuaq Airport Kangirsuk Airport Kangiqsualujjuaq Airport Kuujjuaq Airport Quaqtaq Airport Salluit Airport Tasiujaq Airport Cape Kakkiviak
Legend:
buoy Buoy
land station Land Station

Hudson - Hudson Bay Area

Another Region

What we are doing

Date modified: